createdAt,value
2023-04-10T00:01:22.324Z,102012.75
2023-04-10T00:04:08.985Z,102003.84
2023-04-10T00:06:56.011Z,102007.81
2023-04-10T00:09:42.474Z,101999.56
2023-04-10T00:12:30.690Z,101994.16
2023-04-10T00:15:16.994Z,101982.84
2023-04-10T00:18:03.111Z,101984.22
2023-04-10T00:20:49.663Z,101976.03
2023-04-10T00:23:36.271Z,101976.69
2023-04-10T00:26:23.889Z,101969.78
2023-04-10T00:29:11.601Z,101965.94
2023-04-10T00:31:58.635Z,101959.59
2023-04-10T00:34:44.791Z,101950.94
2023-04-10T00:37:31.241Z,101951.88
2023-04-10T00:40:17.608Z,101945.56
2023-04-10T00:43:03.877Z,101951.94
2023-04-10T00:45:51.480Z,101947.53
2023-04-10T00:48:38.532Z,101951.03
2023-04-10T00:51:24.678Z,101940.66
2023-04-10T00:54:12.066Z,101940.47
2023-04-10T00:56:59.745Z,101929.34
2023-04-10T00:59:46.410Z,101938.22
2023-04-10T01:02:34.347Z,101934.06
2023-04-10T01:05:20.660Z,101933.19
2023-04-10T01:08:17.578Z,101924.22
2023-04-10T01:11:10.438Z,101929.72
2023-04-10T01:14:07.274Z,101924.75
2023-04-10T01:16:58.793Z,101920.25
2023-04-10T01:20:03.976Z,101916.28
2023-04-10T01:23:15.962Z,101906.34
2023-04-10T01:26:05.495Z,101915.09
2023-04-10T01:29:01.418Z,101907.13
2023-04-10T01:31:55.270Z,101899.00
2023-04-10T01:34:45.819Z,101895.81
2023-04-10T01:37:35.457Z,101890.72
2023-04-10T01:40:22.701Z,101888.44
2023-04-10T01:43:11.250Z,101882.38
2023-04-10T01:46:12.206Z,101873.97
2023-04-10T01:49:02.055Z,101887.78
2023-04-10T01:51:50.341Z,101879.06
2023-04-10T01:54:36.770Z,101875.31
2023-04-10T01:57:23.305Z,101873.47
2023-04-10T02:00:16.697Z,101873.81
2023-04-10T02:03:04.389Z,101872.94
2023-04-10T02:06:02.432Z,101863.91
2023-04-10T02:08:55.883Z,101874.53
2023-04-10T02:11:48.576Z,101871.69
2023-04-10T02:14:39.861Z,101869.50
2023-04-10T02:17:29.722Z,101864.31
2023-04-10T02:20:18.571Z,101855.75
2023-04-10T02:23:06.639Z,101861.22
2023-04-10T02:25:53.185Z,101867.34
2023-04-10T02:28:40.107Z,101867.63
2023-04-10T02:31:26.575Z,101869.09
2023-04-10T02:34:14.034Z,101865.72
2023-04-10T02:37:01.986Z,101859.59
2023-04-10T02:39:49.267Z,101864.50
2023-04-10T02:42:35.974Z,101865.41
2023-04-10T02:45:25.472Z,101870.31
2023-04-10T02:48:12.745Z,101873.03
2023-04-10T02:50:59.559Z,101874.25
2023-04-10T02:53:48.992Z,101882.84
2023-04-10T02:56:45.753Z,101869.97
2023-04-10T02:59:33.098Z,101874.84
2023-04-10T03:02:21.749Z,101880.66
2023-04-10T03:05:09.071Z,101871.34
2023-04-10T03:07:55.647Z,101870.81
2023-04-10T03:10:45.138Z,101870.69
2023-04-10T03:13:31.699Z,101873.09
2023-04-10T03:16:18.828Z,101875.28
2023-04-10T03:19:06.032Z,101883.56
2023-04-10T03:21:53.504Z,101869.84
2023-04-10T03:24:39.944Z,101872.13
2023-04-10T03:27:29.048Z,101861.84
2023-04-10T03:30:15.455Z,101860.22
2023-04-10T03:33:02.377Z,101861.69
2023-04-10T03:35:49.694Z,101858.38
2023-04-10T03:38:36.422Z,101855.03
2023-04-10T03:41:25.401Z,101844.03
2023-04-10T03:44:13.386Z,101848.34
2023-04-10T03:46:59.782Z,101848.38
2023-04-10T03:49:46.953Z,101842.25
2023-04-10T03:52:34.008Z,101834.56
2023-04-10T03:55:20.303Z,101840.84
2023-04-10T03:58:08.274Z,101838.63
2023-04-10T04:00:56.691Z,101830.34
2023-04-10T04:03:53.891Z,101823.69
2023-04-10T04:06:58.908Z,101812.78
2023-04-10T04:10:20.488Z,101813.22
2023-04-10T04:13:33.866Z,101808.13
2023-04-10T04:16:30.936Z,101813.16
2023-04-10T04:19:52.424Z,101804.59
2023-04-10T04:22:58.108Z,101809.09
2023-04-10T04:25:52.759Z,101807.84
2023-04-10T04:28:39.093Z,101808.78
2023-04-10T04:31:45.720Z,101800.69
2023-04-10T04:34:58.355Z,101798.16
2023-04-10T04:38:14.262Z,101801.41
2023-04-10T04:41:06.948Z,101800.03
2023-04-10T04:44:12.765Z,101800.78
2023-04-10T04:47:24.374Z,101797.28
2023-04-10T04:50:11.367Z,101790.97
2023-04-10T04:53:27.098Z,101788.13
2023-04-10T04:56:33.877Z,101781.66
2023-04-10T04:59:39.179Z,101789.41
2023-04-10T05:02:41.931Z,101785.63
2023-04-10T05:05:49.403Z,101790.88
2023-04-10T05:08:46.648Z,101784.22
2023-04-10T05:12:03.870Z,101784.06
2023-04-10T05:15:16.500Z,101781.66
2023-04-10T05:18:12.584Z,101780.22
2023-04-10T05:21:02.521Z,101784.22
2023-04-10T05:24:18.974Z,101776.47
2023-04-10T05:27:24.302Z,101769.94
2023-04-10T05:30:23.140Z,101773.53
2023-04-10T05:33:29.453Z,101763.22
2023-04-10T05:36:28.446Z,101768.44
2023-04-10T05:39:28.868Z,101783.59
2023-04-10T05:42:27.735Z,101771.97
2023-04-10T05:45:30.094Z,101777.53
2023-04-10T05:48:41.172Z,101783.59
2023-04-10T05:51:44.057Z,101782.59
2023-04-10T05:54:43.510Z,101779.22
2023-04-10T05:57:48.360Z,101775.00
2023-04-10T06:00:58.550Z,101775.16
2023-04-10T06:04:12.766Z,101768.34
2023-04-10T06:06:59.969Z,101767.13
2023-04-10T06:09:46.444Z,101751.56
2023-04-10T06:12:33.024Z,101753.56
2023-04-10T06:15:21.738Z,101747.59
2023-04-10T06:18:08.399Z,101746.34
2023-04-10T06:21:01.727Z,101754.06
2023-04-10T06:23:48.488Z,101750.47
2023-04-10T06:26:35.360Z,101746.50
2023-04-10T06:29:24.490Z,101732.63
2023-04-10T06:32:10.582Z,101727.50
2023-04-10T06:34:59.721Z,101723.69
2023-04-10T06:37:47.718Z,101728.28
2023-04-10T06:40:35.110Z,101718.25
2023-04-10T06:43:21.709Z,101716.97
2023-04-10T06:46:08.804Z,101705.38
2023-04-10T06:48:55.289Z,101704.56
2023-04-10T06:51:41.949Z,101699.00
2023-04-10T06:54:31.588Z,101698.66
2023-04-10T06:57:18.776Z,101695.09
2023-04-10T07:00:05.648Z,101689.00
2023-04-10T07:02:52.303Z,101687.28
2023-04-10T07:05:40.702Z,101682.38
2023-04-10T07:08:28.855Z,101680.47
2023-04-10T07:11:16.755Z,101670.38
2023-04-10T07:14:03.326Z,101671.00
2023-04-10T07:16:50.061Z,101665.25
2023-04-10T07:19:39.282Z,101660.66
2023-04-10T07:22:25.278Z,101655.78
2023-04-10T07:25:11.803Z,101656.22
2023-04-10T07:27:59.434Z,101647.03
2023-04-10T07:30:46.189Z,101635.94
2023-04-10T07:33:32.927Z,101638.31
2023-04-10T07:36:19.501Z,101639.03
2023-04-10T07:39:05.512Z,101636.72
2023-04-10T07:41:54.174Z,101632.22
2023-04-10T07:44:41.904Z,101630.66
2023-04-10T07:47:28.401Z,101636.34
2023-04-10T07:50:14.869Z,101619.25
2023-04-10T07:53:03.643Z,101621.59
2023-04-10T07:55:50.465Z,101620.13
2023-04-10T07:58:36.624Z,101614.34
2023-04-10T08:01:24.518Z,101618.25
2023-04-10T08:04:11.389Z,101603.75
2023-04-10T08:06:57.879Z,101609.59
2023-04-10T08:09:44.303Z,101609.84
2023-04-10T08:12:31.926Z,101606.00
2023-04-10T08:15:18.879Z,101605.66
2023-04-10T08:18:06.692Z,101599.00
2023-04-10T08:20:53.337Z,101598.13
2023-04-10T08:23:39.732Z,101595.09
2023-04-10T08:26:27.489Z,101601.94
2023-04-10T08:29:13.898Z,101592.06
2023-04-10T08:32:00.956Z,101579.53
2023-04-10T08:34:51.322Z,101574.00
2023-04-10T08:37:38.624Z,101568.16
2023-04-10T08:40:25.148Z,101570.25
2023-04-10T08:43:11.817Z,101563.75
2023-04-10T08:45:58.725Z,101567.97
2023-04-10T08:48:49.458Z,101568.84
2023-04-10T08:51:40.509Z,101573.41
2023-04-10T08:54:29.649Z,101565.88
2023-04-10T08:57:18.372Z,101564.34
2023-04-10T09:00:19.974Z,101548.84
2023-04-10T09:03:11.762Z,101550.66
2023-04-10T09:06:02.966Z,101551.28
2023-04-10T09:08:50.610Z,101542.25
2023-04-10T09:12:01.405Z,101533.50
2023-04-10T09:14:49.668Z,101539.03
2023-04-10T09:17:36.006Z,101532.34
2023-04-10T09:20:25.536Z,101519.88
2023-04-10T09:23:21.947Z,101519.78
2023-04-10T09:29:03.082Z,101507.47
2023-04-10T09:31:49.268Z,101505.59
2023-04-10T09:34:35.569Z,101512.22
2023-04-10T09:37:22.644Z,101502.19
2023-04-10T09:40:21.720Z,101491.75
2023-04-10T09:43:18.755Z,101494.00
2023-04-10T09:46:07.019Z,101483.03
2023-04-10T09:48:57.083Z,101483.59
2023-04-10T09:51:43.733Z,101481.91
2023-04-10T09:54:37.195Z,101477.59
2023-04-10T09:57:25.736Z,101476.09
2023-04-10T10:00:14.162Z,101472.47
2023-04-10T10:03:06.236Z,101459.34
2023-04-10T10:05:52.869Z,101457.25
2023-04-10T10:08:39.303Z,101465.06
2023-04-10T10:11:27.447Z,101455.66
2023-04-10T10:14:19.655Z,101457.97
2023-04-10T10:17:14.128Z,101444.41
2023-04-10T10:20:05.614Z,101426.56
2023-04-10T10:22:54.089Z,101423.69
2023-04-10T10:25:40.535Z,101420.06
2023-04-10T10:28:29.080Z,101424.03
2023-04-10T10:31:17.551Z,101412.31
2023-04-10T10:34:05.296Z,101408.97
2023-04-10T10:36:53.272Z,101405.63
2023-04-10T10:39:48.857Z,101406.06
2023-04-10T10:42:40.085Z,101390.50
2023-04-10T10:45:32.191Z,101389.56
2023-04-10T10:48:18.508Z,101384.13
2023-04-10T10:51:05.442Z,101385.88
2023-04-10T10:53:52.846Z,101380.41
2023-04-10T10:56:39.432Z,101371.06
2023-04-10T10:59:56.582Z,101369.59
2023-04-10T11:02:43.257Z,101357.13
2023-04-10T11:05:52.348Z,101349.13
2023-04-10T11:08:43.435Z,101346.09
2023-04-10T11:11:31.682Z,101343.13
2023-04-10T11:14:19.146Z,101341.53
2023-04-10T11:17:05.906Z,101326.97
2023-04-10T11:20:00.313Z,101326.94
2023-04-10T11:23:09.438Z,101322.28
2023-04-10T11:25:57.759Z,101319.44
2023-04-10T11:28:45.337Z,101312.88
2023-04-10T11:31:34.360Z,101294.63
2023-04-10T11:34:21.201Z,101304.88
2023-04-10T11:37:07.945Z,101293.69
2023-04-10T11:40:05.331Z,101286.94
2023-04-10T11:42:51.764Z,101286.41
2023-04-10T11:45:39.667Z,101286.31
2023-04-10T11:48:26.475Z,101278.56
2023-04-10T11:51:14.503Z,101275.78
2023-04-10T11:54:09.398Z,101261.38
2023-04-10T11:56:59.025Z,101267.63
2023-04-10T11:59:51.105Z,101257.38
2023-04-10T12:02:51.467Z,101245.41
2023-04-10T12:05:47.037Z,101246.75
2023-04-10T12:08:36.426Z,101239.47
2023-04-10T12:11:24.860Z,101236.59
2023-04-10T12:14:11.590Z,101230.97
2023-04-10T12:16:59.391Z,101226.25
2023-04-10T12:19:48.144Z,101223.84
2023-04-10T12:22:34.841Z,101219.03
2023-04-10T12:25:22.522Z,101213.31
2023-04-10T12:28:09.368Z,101204.53
2023-04-10T12:30:55.783Z,101193.25
2023-04-10T12:33:45.489Z,101185.78
2023-04-10T12:36:35.149Z,101190.44
2023-04-10T12:39:26.857Z,101180.63
2023-04-10T12:42:14.537Z,101174.06
2023-04-10T12:45:01.889Z,101164.47
2023-04-10T12:47:51.605Z,101169.66
2023-04-10T12:50:47.917Z,101154.22
2023-04-10T12:53:44.188Z,101143.25
2023-04-10T12:56:41.824Z,101146.75
2023-04-10T12:59:29.135Z,101139.22
2023-04-10T13:02:15.678Z,101140.38
2023-04-10T13:05:02.162Z,101137.97
2023-04-10T13:07:52.466Z,101148.50
2023-04-10T13:10:42.059Z,101138.44
2023-04-10T13:13:28.274Z,101141.78
2023-04-10T13:16:14.659Z,101130.28
2023-04-10T13:19:01.898Z,101123.81
2023-04-10T13:21:48.358Z,101111.97
2023-04-10T13:24:35.551Z,101101.59
2023-04-10T13:27:23.595Z,101102.63
2023-04-10T13:30:10.681Z,101098.34
2023-04-10T13:32:57.214Z,101089.53
2023-04-10T13:35:43.724Z,101087.44
2023-04-10T13:38:30.148Z,101056.63
2023-04-10T13:41:16.490Z,101048.44
2023-04-10T13:44:04.330Z,101043.47
2023-04-10T13:46:52.033Z,101034.06
2023-04-10T13:49:38.451Z,101030.94
2023-04-10T13:52:24.829Z,101010.28
2023-04-10T13:55:11.548Z,101028.13
2023-04-10T13:57:57.718Z,101009.09
2023-04-10T14:00:45.623Z,101005.97
2023-04-10T14:03:32.082Z,100992.44
2023-04-10T14:06:18.767Z,100992.03
2023-04-10T14:09:05.223Z,100989.50
2023-04-10T14:11:51.810Z,100991.31
2023-04-10T14:14:37.856Z,100984.66
2023-04-10T14:17:25.604Z,100997.72
2023-04-10T14:20:13.217Z,101003.34
2023-04-10T14:22:59.721Z,101000.03
2023-04-10T14:25:46.237Z,101000.84
2023-04-10T14:28:32.820Z,100997.75
2023-04-10T14:31:19.169Z,100991.59
2023-04-10T14:34:07.104Z,100994.34
2023-04-10T14:36:55.766Z,100997.09
2023-04-10T14:39:42.276Z,100996.50
2023-04-10T14:42:28.514Z,100991.28
2023-04-10T14:45:15.024Z,100996.75
2023-04-10T14:48:02.204Z,100988.59
2023-04-10T14:50:50.219Z,100991.72
2023-04-10T14:53:37.522Z,100980.19
2023-04-10T14:56:23.840Z,100970.97
2023-04-10T14:59:10.243Z,100938.69
2023-04-10T15:01:56.843Z,100912.53
2023-04-10T15:04:43.930Z,100894.91
2023-04-10T15:07:31.199Z,100874.81
2023-04-10T15:10:17.871Z,100881.88
2023-04-10T15:13:05.187Z,100854.69
2023-04-10T15:15:51.735Z,100846.28
2023-04-10T15:18:38.087Z,100848.63
2023-04-10T15:21:24.371Z,100855.94
2023-04-10T15:24:12.278Z,100848.38
2023-04-10T15:27:07.573Z,100843.81
2023-04-10T15:29:54.898Z,100849.22
2023-04-10T15:32:41.271Z,100845.47
2023-04-10T15:35:28.768Z,100843.56
2023-04-10T15:38:15.414Z,100840.22
2023-04-10T15:41:08.509Z,100844.22
2023-04-10T15:43:55.083Z,100840.88
2023-04-10T15:46:41.686Z,100840.47
2023-04-10T15:49:37.629Z,100847.59
2023-04-10T15:52:24.744Z,100853.63
2023-04-10T15:55:11.080Z,100844.59
2023-04-10T15:58:00.970Z,100844.63
2023-04-10T16:00:48.749Z,100852.56
2023-04-10T16:03:35.161Z,100854.84
2023-04-10T16:06:25.740Z,100858.63
2023-04-10T16:09:24.234Z,100846.47
2023-04-10T16:12:12.460Z,100832.03
2023-04-10T16:15:00.241Z,100844.81
2023-04-10T16:17:46.583Z,100842.09
2023-04-10T16:20:33.186Z,100838.91
2023-04-10T16:23:19.628Z,100842.06
2023-04-10T16:26:06.361Z,100838.47
2023-04-10T16:28:53.082Z,100851.06
2023-04-10T16:31:41.680Z,100847.38
2023-04-10T16:34:28.192Z,100854.09
2023-04-10T16:37:14.591Z,100862.03
2023-04-10T16:40:01.678Z,100870.94
2023-04-10T16:42:48.005Z,100893.28
2023-04-10T16:45:34.467Z,100902.75
2023-04-10T16:48:22.349Z,100920.38
2023-04-10T16:51:16.150Z,100931.66
2023-04-10T16:54:03.649Z,100924.44
2023-04-10T16:56:50.144Z,100909.09
2023-04-10T16:59:36.730Z,100891.47
2023-04-10T17:02:25.109Z,100871.47
2023-04-10T17:05:13.642Z,100851.38
2023-04-10T17:08:00.475Z,100828.97
2023-04-10T17:10:46.985Z,100821.41
2023-04-10T17:13:35.572Z,100829.00
2023-04-10T17:16:21.683Z,100844.31
2023-04-10T17:19:08.252Z,100847.59
2023-04-10T17:21:56.196Z,100823.41
2023-04-10T17:24:42.799Z,100806.81
2023-04-10T17:27:28.978Z,100800.63
2023-04-10T17:30:17.150Z,100797.94
2023-04-10T17:33:03.940Z,100797.81
2023-04-10T17:35:51.452Z,100784.84
2023-04-10T17:38:39.596Z,100768.75
2023-04-10T17:41:26.165Z,100758.22
2023-04-10T17:44:12.993Z,100748.44
2023-04-10T17:46:59.901Z,100743.34
2023-04-10T17:49:46.371Z,100754.44
2023-04-10T17:52:32.998Z,100752.09
2023-04-10T17:55:21.409Z,100732.19
2023-04-10T17:58:08.128Z,100735.34
2023-04-10T18:00:54.506Z,100734.44
2023-04-10T18:03:41.005Z,100733.16
2023-04-10T18:06:27.538Z,100725.06
2023-04-10T18:09:15.299Z,100728.66
2023-04-10T18:12:03.122Z,100718.38
2023-04-10T18:14:49.916Z,100709.19
2023-04-10T18:17:39.291Z,100702.50
2023-04-10T18:20:26.052Z,100700.81
2023-04-10T18:23:12.217Z,100740.34
2023-04-10T18:25:58.859Z,100745.28
2023-04-10T18:28:46.778Z,100747.00
2023-04-10T18:31:33.632Z,100741.75
2023-04-10T18:34:19.980Z,100720.25
2023-04-10T18:37:08.920Z,100718.13
2023-04-10T18:39:58.797Z,100721.22
2023-04-10T18:42:47.202Z,100713.91
2023-04-10T18:45:37.770Z,100709.34
2023-04-10T18:48:24.426Z,100704.72
2023-04-10T18:51:11.093Z,100678.41
2023-04-10T18:53:58.718Z,100688.38
2023-04-10T18:56:45.013Z,100698.03
2023-04-10T18:59:31.922Z,100717.38
2023-04-10T19:02:20.299Z,100715.19
2023-04-10T19:05:08.443Z,100714.84
2023-04-10T19:08:03.675Z,100698.06
2023-04-10T19:10:50.762Z,100736.44
2023-04-10T19:13:37.100Z,100750.94
2023-04-10T19:16:23.761Z,100744.63
2023-04-10T19:19:11.438Z,100715.56
2023-04-10T19:21:59.062Z,100698.56
2023-04-10T19:24:45.735Z,100692.19
2023-04-10T19:27:31.893Z,100674.59
2023-04-10T19:30:18.441Z,100689.78
2023-04-10T19:33:04.930Z,100687.97
2023-04-10T19:35:52.612Z,100673.88
2023-04-10T19:38:40.751Z,100671.75
2023-04-10T19:41:27.831Z,100674.88
2023-04-10T19:44:14.142Z,100670.72
2023-04-10T19:47:00.692Z,100671.13
2023-04-10T19:49:47.466Z,100673.13
2023-04-10T19:52:35.142Z,100666.28
2023-04-10T19:55:21.615Z,100678.31
2023-04-10T19:58:10.873Z,100687.56
2023-04-10T20:01:08.643Z,100693.03
2023-04-10T20:03:55.410Z,100693.50
2023-04-10T20:06:43.069Z,100685.94
2023-04-10T20:09:30.609Z,100692.31
2023-04-10T20:12:17.242Z,100684.34
2023-04-10T20:15:04.656Z,100682.66
2023-04-10T20:17:50.837Z,100684.50
2023-04-10T20:20:37.082Z,100676.34
2023-04-10T20:23:23.522Z,100677.47
2023-04-10T20:26:12.143Z,100679.50
2023-04-10T20:28:58.910Z,100670.53
2023-04-10T20:31:45.275Z,100663.09
2023-04-10T20:34:31.627Z,100665.81
2023-04-10T20:37:21.741Z,100660.69
2023-04-10T20:40:09.828Z,100662.53
2023-04-10T20:42:57.529Z,100670.97
2023-04-10T20:45:43.767Z,100665.53
2023-04-10T20:48:30.384Z,100668.94
2023-04-10T20:51:16.896Z,100668.88
2023-04-10T20:54:04.436Z,100659.69
2023-04-10T20:56:50.621Z,100649.13
2023-04-10T20:59:38.476Z,100648.69
2023-04-10T21:02:25.051Z,100636.25
2023-04-10T21:05:11.934Z,100633.88
2023-04-10T21:07:58.544Z,100635.22
2023-04-10T21:10:45.190Z,100636.13
2023-04-10T21:13:31.654Z,100628.13
2023-04-10T21:16:19.465Z,100627.38
2023-04-10T21:19:06.056Z,100635.75
2023-04-10T21:21:52.344Z,100637.78
2023-04-10T21:24:38.885Z,100639.06
2023-04-10T21:27:25.362Z,100635.53
2023-04-10T21:30:12.456Z,100632.63
2023-04-10T21:33:00.055Z,100634.56
2023-04-10T21:35:46.538Z,100623.53
2023-04-10T21:38:33.700Z,100617.53
2023-04-10T21:41:20.768Z,100622.69
2023-04-10T21:44:07.769Z,100621.59
2023-04-10T21:46:54.275Z,100628.31
2023-04-10T21:49:41.701Z,100629.28
2023-04-10T21:52:28.077Z,100615.06
2023-04-10T21:55:15.822Z,100632.75
2023-04-10T21:58:02.047Z,100632.25
2023-04-10T22:00:49.909Z,100631.88
2023-04-10T22:03:36.582Z,100631.88
2023-04-10T22:06:24.400Z,100629.56
2023-04-10T22:09:10.714Z,100624.84
2023-04-10T22:11:56.864Z,100647.81
2023-04-10T22:14:43.270Z,100722.91
2023-04-10T22:17:30.000Z,100704.91
2023-04-10T22:20:17.164Z,100699.31
2023-04-10T22:23:05.382Z,100684.19
2023-04-10T22:25:51.662Z,100676.88
2023-04-10T22:28:37.909Z,100666.84
2023-04-10T22:31:24.177Z,100666.38
2023-04-10T22:34:10.655Z,100664.66
2023-04-10T22:36:57.654Z,100662.28
2023-04-10T22:39:45.435Z,100649.69
2023-04-10T22:42:32.069Z,100654.41
2023-04-10T22:45:18.576Z,100666.09
2023-04-10T22:48:04.974Z,100661.69
2023-04-10T22:50:51.156Z,100646.63
2023-04-10T22:53:37.640Z,100657.47
2023-04-10T22:56:26.728Z,100666.31
2023-04-10T22:59:13.444Z,100660.63
2023-04-10T23:01:59.871Z,100659.78
2023-04-10T23:04:46.096Z,100663.22
2023-04-10T23:07:32.632Z,100655.38
2023-04-10T23:10:19.097Z,100662.75
2023-04-10T23:13:06.790Z,100658.13
2023-04-10T23:15:53.967Z,100664.69
2023-04-10T23:18:40.579Z,100665.13
2023-04-10T23:21:27.370Z,100662.47
2023-04-10T23:24:13.679Z,100660.81
2023-04-10T23:27:00.226Z,100656.38
2023-04-10T23:29:47.745Z,100659.63
2023-04-10T23:32:34.437Z,100658.47
2023-04-10T23:35:20.926Z,100662.94
2023-04-10T23:38:07.141Z,100651.88
2023-04-10T23:40:53.510Z,100658.38
2023-04-10T23:43:39.888Z,100644.09
2023-04-10T23:46:27.664Z,100648.81
2023-04-10T23:49:13.884Z,100648.06
2023-04-10T23:52:04.631Z,100643.91
2023-04-10T23:54:50.978Z,100638.13
2023-04-10T23:57:37.354Z,100649.41
